createdAt,value
2018-11-21T00:01:45.022Z,101545.63
2018-11-21T00:03:49.046Z,101543.85
2018-11-21T00:05:53.066Z,101540.74
2018-11-21T00:07:57.077Z,101543.84
2018-11-21T00:10:01.133Z,101536.66
2018-11-21T00:12:05.276Z,101537.03
2018-11-21T00:14:09.329Z,101539.63
2018-11-21T00:16:13.369Z,101531.04
2018-11-21T00:18:17.379Z,101529.75
2018-11-21T00:20:21.362Z,101531.17
2018-11-21T00:22:25.620Z,101528.44
2018-11-21T00:24:29.631Z,101527.92
2018-11-21T00:26:33.679Z,101527.94
2018-11-21T00:28:37.700Z,101525.79
2018-11-21T00:30:41.709Z,101530.22
2018-11-21T00:32:45.689Z,101531.52
2018-11-21T00:34:50.995Z,101535.06
2018-11-21T00:36:54.955Z,101538.69
2018-11-21T00:38:58.930Z,101539.28
2018-11-21T00:41:03.071Z,101538.66
2018-11-21T00:43:07.071Z,101549.89
2018-11-21T00:45:11.335Z,101543.52
2018-11-21T00:47:15.990Z,101545.00
2018-11-21T00:49:19.998Z,101542.71
2018-11-21T00:51:24.022Z,101542.05
2018-11-21T00:54:10.584Z,101545.34
2018-11-21T00:56:13.013Z,101543.02
2018-11-21T00:58:15.483Z,101543.70
2018-11-21T01:00:18.326Z,101545.69
2018-11-21T01:02:20.780Z,101546.02
2018-11-21T01:04:23.238Z,101547.77
2018-11-21T01:06:26.022Z,101546.42
2018-11-21T01:08:28.469Z,101547.28
2018-11-21T01:10:30.955Z,101540.31
2018-11-21T01:12:33.458Z,101540.95
2018-11-21T01:14:35.921Z,101539.33
2018-11-21T01:16:38.383Z,101538.16
2018-11-21T01:18:40.862Z,101541.98
2018-11-21T01:20:43.375Z,101545.03
2018-11-21T01:22:45.860Z,101551.02
2018-11-21T01:24:48.503Z,101540.30
2018-11-21T01:26:50.969Z,101541.77
2018-11-21T01:28:53.445Z,101542.56
2018-11-21T01:30:55.921Z,101540.28
2018-11-21T01:32:58.401Z,101542.05
2018-11-21T01:35:00.942Z,101549.23
2018-11-21T01:37:03.486Z,101544.08
2018-11-21T01:39:08.642Z,101546.31
2018-11-21T01:41:11.681Z,101543.92
2018-11-21T01:43:14.138Z,101547.31
2018-11-21T01:45:16.613Z,101551.87
2018-11-21T01:47:19.124Z,101547.12
2018-11-21T01:49:21.569Z,101548.74
2018-11-21T01:51:24.081Z,101552.48
2018-11-21T01:53:26.876Z,101550.72
2018-11-21T01:55:29.343Z,101554.95
2018-11-21T01:57:31.794Z,101559.47
2018-11-21T01:59:34.322Z,101558.48
2018-11-21T02:01:36.836Z,101557.91
2018-11-21T02:03:39.470Z,101553.18
2018-11-21T02:05:41.925Z,101551.87
2018-11-21T02:07:44.366Z,101548.47
2018-11-21T02:09:46.869Z,101546.20
2018-11-21T02:11:49.324Z,101542.59
2018-11-21T02:13:51.804Z,101542.92
2018-11-21T02:15:54.331Z,101546.22
2018-11-21T02:17:56.835Z,101550.56
2018-11-21T02:19:59.335Z,101549.28
2018-11-21T02:22:01.776Z,101551.25
2018-11-21T02:24:04.253Z,101557.08
2018-11-21T02:26:06.737Z,101554.00
2018-11-21T02:28:09.195Z,101551.53
2018-11-21T02:30:11.723Z,101560.01
2018-11-21T02:32:14.180Z,101554.45
2018-11-21T02:34:16.619Z,101550.91
2018-11-21T02:36:19.090Z,101554.98
2018-11-21T02:38:21.539Z,101557.25
2018-11-21T02:40:23.976Z,101562.27
2018-11-21T02:42:26.466Z,101567.30
2018-11-21T02:44:28.964Z,101567.14
2018-11-21T02:46:31.448Z,101562.94
2018-11-21T02:48:33.896Z,101561.64
2018-11-21T02:50:36.414Z,101566.34
2018-11-21T02:52:38.890Z,101563.27
2018-11-21T02:54:41.387Z,101568.45
2018-11-21T02:57:26.076Z,101569.76
2018-11-21T02:59:28.521Z,101568.64
2018-11-21T03:01:30.984Z,101571.20
2018-11-21T03:03:33.779Z,101578.20
2018-11-21T03:05:36.239Z,101575.11
2018-11-21T03:07:48.468Z,101576.76
2018-11-21T03:09:50.963Z,101578.18
2018-11-21T03:11:53.442Z,101577.22
2018-11-21T03:13:55.922Z,101577.88
2018-11-21T03:15:58.419Z,101583.55
2018-11-21T03:18:00.863Z,101585.83
2018-11-21T03:20:03.388Z,101589.26
2018-11-21T03:22:06.169Z,101589.58
2018-11-21T03:24:08.814Z,101592.48
2018-11-21T03:26:11.268Z,101586.96
2018-11-21T03:28:13.789Z,101587.78
2018-11-21T03:30:16.231Z,101592.81
2018-11-21T03:32:18.740Z,101597.04
2018-11-21T03:34:21.179Z,101591.85
2018-11-21T03:36:23.638Z,101597.20
2018-11-21T03:38:26.441Z,101592.98
2018-11-21T03:40:28.893Z,101590.05
2018-11-21T03:42:31.364Z,101586.49
2018-11-21T03:44:33.878Z,101588.28
2018-11-21T03:46:36.485Z,101588.75
2018-11-21T03:48:39.016Z,101589.73
2018-11-21T03:50:41.498Z,101584.88
2018-11-21T03:52:43.942Z,101586.00
2018-11-21T03:54:46.462Z,101583.56
2018-11-21T03:56:48.951Z,101588.61
2018-11-21T03:58:51.427Z,101589.59
2018-11-21T04:00:53.910Z,101590.06
2018-11-21T04:02:56.349Z,101594.44
2018-11-21T04:04:58.830Z,101591.52
2018-11-21T04:07:01.338Z,101595.59
2018-11-21T04:09:08.226Z,101596.72
2018-11-21T04:11:10.695Z,101590.22
2018-11-21T04:13:13.236Z,101590.55
2018-11-21T04:15:15.680Z,101584.69
2018-11-21T04:17:18.140Z,101585.66
2018-11-21T04:19:20.632Z,101590.38
2018-11-21T04:21:23.113Z,101591.67
2018-11-21T04:23:25.557Z,101593.47
2018-11-21T04:25:28.045Z,101590.72
2018-11-21T04:27:30.562Z,101595.75
2018-11-21T04:29:33.215Z,101603.20
2018-11-21T04:31:35.775Z,101608.39
2018-11-21T04:33:38.625Z,101606.13
2018-11-21T04:35:41.090Z,101607.09
2018-11-21T04:37:43.522Z,101611.66
2018-11-21T04:39:46.005Z,101614.08
2018-11-21T04:41:48.455Z,101613.09
2018-11-21T04:43:50.944Z,101610.00
2018-11-21T04:45:53.461Z,101610.19
2018-11-21T04:47:56.034Z,101609.69
2018-11-21T04:49:58.335Z,101604.03
2018-11-21T04:52:00.857Z,101612.47
2018-11-21T04:54:04.328Z,101612.94
2018-11-21T04:56:06.877Z,101620.56
2018-11-21T04:58:10.058Z,101627.22
2018-11-21T05:00:12.611Z,101627.05
2018-11-21T05:02:15.145Z,101628.18
2018-11-21T05:04:17.675Z,101631.61
2018-11-21T05:06:20.233Z,101631.28
2018-11-21T05:08:22.736Z,101632.90
2018-11-21T05:10:25.301Z,101634.69
2018-11-21T05:12:27.878Z,101629.50
2018-11-21T05:14:30.401Z,101634.02
2018-11-21T05:16:33.018Z,101633.55
2018-11-21T05:18:35.596Z,101631.44
2018-11-21T05:20:38.119Z,101630.30
2018-11-21T05:22:40.671Z,101624.45
2018-11-21T05:24:43.371Z,101626.73
2018-11-21T05:26:45.937Z,101624.77
2018-11-21T05:28:48.753Z,101622.19
2018-11-21T05:30:51.311Z,101619.92
2018-11-21T05:32:53.846Z,101622.17
2018-11-21T05:34:56.746Z,101626.25
2018-11-21T05:36:59.357Z,101632.39
2018-11-21T05:39:02.532Z,101629.16
2018-11-21T05:41:05.809Z,101632.41
2018-11-21T05:43:08.661Z,101635.99
2018-11-21T05:45:13.488Z,101636.48
2018-11-21T05:47:22.109Z,101647.80
2018-11-21T05:49:49.437Z,101650.42
2018-11-21T05:51:54.365Z,101651.05
2018-11-21T05:54:15.562Z,101657.05
2018-11-21T05:56:36.507Z,101659.33
2018-11-21T05:58:38.961Z,101657.88
2018-11-21T06:00:41.424Z,101660.95
2018-11-21T06:02:43.935Z,101660.95
2018-11-21T06:04:46.445Z,101667.13
2018-11-21T06:06:48.882Z,101679.80
2018-11-21T06:08:51.389Z,101675.58
2018-11-21T06:10:53.833Z,101683.04
2018-11-21T06:12:56.284Z,101695.68
2018-11-21T06:14:59.427Z,101688.39
2018-11-21T06:17:01.886Z,101693.89
2018-11-21T06:19:22.956Z,101693.10
2018-11-21T06:21:25.404Z,101696.66
2018-11-21T06:23:27.856Z,101700.91
2018-11-21T06:25:30.317Z,101705.08
2018-11-21T06:27:32.781Z,101706.22
2018-11-21T06:29:35.613Z,101710.75
2018-11-21T06:31:38.036Z,101712.06
2018-11-21T06:33:40.534Z,101717.41
2018-11-21T06:35:43.117Z,101709.64
2018-11-21T06:37:45.608Z,101716.92
2018-11-21T06:39:48.082Z,101713.86
2018-11-21T06:41:50.538Z,101716.62
2018-11-21T06:43:52.989Z,101719.72
2018-11-21T06:45:55.839Z,101726.52
2018-11-21T06:47:58.261Z,101729.61
2018-11-21T06:50:00.703Z,101731.84
2018-11-21T06:52:03.221Z,101737.19
2018-11-21T06:54:08.033Z,101742.91
2018-11-21T06:56:10.472Z,101750.02
2018-11-21T06:58:12.969Z,101754.88
2018-11-21T07:00:15.423Z,101754.12
2018-11-21T07:02:17.926Z,101757.01
2018-11-21T07:04:20.674Z,101761.83
2018-11-21T07:06:23.137Z,101764.75
2018-11-21T07:08:25.582Z,101764.59
2018-11-21T07:10:28.650Z,101763.48
2018-11-21T07:12:31.092Z,101766.11
2018-11-21T07:14:33.571Z,101761.89
2018-11-21T07:16:37.140Z,101763.79
2018-11-21T07:18:39.999Z,101765.13
2018-11-21T07:20:42.476Z,101761.86
2018-11-21T07:22:44.960Z,101764.80
2018-11-21T07:24:47.837Z,101768.87
2018-11-21T07:26:50.287Z,101768.53
2018-11-21T07:28:52.802Z,101767.42
2018-11-21T07:30:55.275Z,101777.47
2018-11-21T07:32:57.726Z,101779.27
2018-11-21T07:35:00.170Z,101773.90
2018-11-21T07:37:02.641Z,101778.80
2018-11-21T07:39:08.167Z,101779.26
2018-11-21T07:41:10.592Z,101782.39
2018-11-21T07:43:12.990Z,101781.73
2018-11-21T07:45:15.730Z,101774.57
2018-11-21T07:47:18.163Z,101775.91
2018-11-21T07:49:20.609Z,101777.67
2018-11-21T07:51:23.009Z,101779.28
2018-11-21T07:53:25.453Z,101776.23
2018-11-21T07:55:27.878Z,101777.70
2018-11-21T07:57:35.842Z,101782.89
2018-11-21T07:59:38.270Z,101782.73
2018-11-21T08:01:49.625Z,101788.39
2018-11-21T08:04:11.672Z,101784.52
2018-11-21T08:06:39.659Z,101786.97
2018-11-21T08:09:01.743Z,101793.63
2018-11-21T08:11:33.091Z,101800.13
2018-11-21T08:13:54.293Z,101799.48
2018-11-21T08:16:28.444Z,101798.83
2018-11-21T08:18:59.782Z,101800.31
2018-11-21T08:21:11.756Z,101797.52
2018-11-21T08:23:32.406Z,101796.58
2018-11-21T08:25:57.268Z,101806.47
2018-11-21T08:28:17.454Z,101810.53
2018-11-21T08:30:19.881Z,101812.95
2018-11-21T08:32:22.327Z,101808.58
2018-11-21T08:34:24.733Z,101812.79
2018-11-21T08:36:27.119Z,101814.59
2018-11-21T08:38:29.864Z,101812.30
2018-11-21T08:40:32.286Z,101815.75
2018-11-21T08:42:34.725Z,101819.47
2018-11-21T08:44:37.181Z,101816.06
2018-11-21T08:46:39.634Z,101818.84
2018-11-21T08:48:42.068Z,101822.56
2018-11-21T08:50:44.526Z,101826.33
2018-11-21T08:52:46.923Z,101822.09
2018-11-21T08:54:49.529Z,101832.47
2018-11-21T08:56:51.997Z,101830.39
2018-11-21T08:58:54.415Z,101822.58
2018-11-21T09:00:56.820Z,101830.19
2018-11-21T09:02:59.271Z,101830.23
2018-11-21T09:05:01.742Z,101830.71
2018-11-21T09:07:04.276Z,101837.86
2018-11-21T09:09:08.958Z,101832.33
2018-11-21T09:11:11.349Z,101831.70
2018-11-21T09:13:13.822Z,101838.00
2018-11-21T09:15:17.031Z,101835.75
2018-11-21T09:17:19.480Z,101837.19
2018-11-21T09:19:21.950Z,101836.70
2018-11-21T09:21:24.381Z,101845.34
2018-11-21T09:23:27.311Z,101847.77
2018-11-21T09:25:29.739Z,101850.84
2018-11-21T09:27:32.669Z,101856.69
2018-11-21T09:29:35.438Z,101853.78
2018-11-21T09:31:37.861Z,101859.92
2018-11-21T09:33:40.261Z,101860.24
2018-11-21T09:35:42.717Z,101866.28
2018-11-21T09:37:45.146Z,101866.12
2018-11-21T09:39:47.589Z,101872.62
2018-11-21T09:41:50.163Z,101877.34
2018-11-21T09:43:52.590Z,101880.92
2018-11-21T09:45:55.004Z,101874.59
2018-11-21T09:47:57.574Z,101878.63
2018-11-21T09:49:59.984Z,101884.48
2018-11-21T09:52:02.456Z,101880.76
2018-11-21T09:54:04.979Z,101882.38
2018-11-21T09:56:07.392Z,101883.84
2018-11-21T09:58:09.806Z,101885.95
2018-11-21T10:01:07.990Z,101881.72
2018-11-21T10:03:18.681Z,101883.68
2018-11-21T10:05:21.135Z,101883.49
2018-11-21T10:07:23.558Z,101889.98
2018-11-21T10:09:29.072Z,101884.80
2018-11-21T10:11:32.573Z,101888.55
2018-11-21T10:13:35.033Z,101889.86
2018-11-21T10:15:37.438Z,101882.89
2018-11-21T10:17:39.865Z,101883.69
2018-11-21T10:19:42.329Z,101882.03
2018-11-21T10:21:44.763Z,101885.92
2018-11-21T10:23:47.195Z,101887.44
2018-11-21T10:25:49.629Z,101891.95
2018-11-21T10:27:52.057Z,101898.63
2018-11-21T10:29:54.498Z,101893.57
2018-11-21T10:31:56.942Z,101895.55
2018-11-21T10:33:59.321Z,101890.36
2018-11-21T10:36:02.029Z,101893.75
2018-11-21T10:38:04.486Z,101897.97
2018-11-21T10:40:07.689Z,101894.09
2018-11-21T10:42:10.141Z,101898.94
2018-11-21T10:44:12.637Z,101905.45
2018-11-21T10:46:15.055Z,101900.08
2018-11-21T10:48:17.501Z,101900.27
2018-11-21T10:50:20.029Z,101902.69
2018-11-21T10:52:22.463Z,101900.41
2018-11-21T10:54:24.893Z,101907.37
2018-11-21T10:56:27.316Z,101911.70
2018-11-21T10:58:29.744Z,101896.33
2018-11-21T11:00:50.607Z,101905.59
2018-11-21T11:03:07.406Z,101895.69
2018-11-21T11:05:21.157Z,101894.04
2018-11-21T11:07:58.214Z,101894.85
2018-11-21T11:10:18.946Z,101894.54
2018-11-21T11:12:59.341Z,101891.75
2018-11-21T11:15:30.305Z,101894.83
2018-11-21T11:17:49.486Z,101895.17
2018-11-21T11:20:30.074Z,101894.19
2018-11-21T11:23:01.061Z,101894.50
2018-11-21T11:25:22.396Z,101892.41
2018-11-21T11:27:37.903Z,101903.45
2018-11-21T11:30:05.953Z,101900.50
2018-11-21T11:32:26.771Z,101897.09
2018-11-21T11:35:07.385Z,101899.32
2018-11-21T11:37:29.435Z,101899.21
2018-11-21T11:40:06.823Z,101905.89
2018-11-21T11:42:35.374Z,101900.98
2018-11-21T11:45:03.520Z,101903.27
2018-11-21T11:47:18.273Z,101905.39
2018-11-21T11:49:39.069Z,101906.36
2018-11-21T11:52:10.149Z,101906.71
2018-11-21T11:54:38.176Z,101907.83
2018-11-21T11:56:59.043Z,101903.65
2018-11-21T11:59:33.257Z,101910.77
2018-11-21T12:02:01.269Z,101908.48
2018-11-21T12:04:24.918Z,101902.67
2018-11-21T12:06:57.803Z,101901.20
2018-11-21T12:09:22.734Z,101905.75
2018-11-21T12:11:39.442Z,101907.22
2018-11-21T12:14:00.152Z,101904.45
2018-11-21T12:16:10.198Z,101910.97
2018-11-21T12:18:24.400Z,101905.27
2018-11-21T12:20:44.082Z,101910.25
2018-11-21T12:23:04.965Z,101909.97
2018-11-21T12:25:25.884Z,101911.40
2018-11-21T12:27:39.202Z,101914.88
2018-11-21T12:30:10.036Z,101909.98
2018-11-21T12:32:33.469Z,101911.63
2018-11-21T12:35:07.510Z,101910.30
2018-11-21T12:37:28.405Z,101902.81
2018-11-21T12:39:57.708Z,101903.80
2018-11-21T12:42:25.270Z,101897.98
2018-11-21T12:44:46.211Z,101896.82
2018-11-21T12:47:11.062Z,101894.02
2018-11-21T12:49:31.898Z,101890.30
2018-11-21T12:52:02.967Z,101886.86
2018-11-21T12:54:22.132Z,101885.61
2018-11-21T12:56:56.422Z,101887.03
2018-11-21T12:59:21.154Z,101887.20
2018-11-21T13:01:36.054Z,101886.75
2018-11-21T13:03:56.765Z,101884.45
2018-11-21T13:06:17.663Z,101882.20
2018-11-21T13:08:33.144Z,101886.88
2018-11-21T13:10:54.044Z,101894.67
2018-11-21T13:13:19.027Z,101893.19
2018-11-21T13:15:43.252Z,101892.28
2018-11-21T13:18:00.670Z,101889.52
2018-11-21T13:20:17.088Z,101891.10
2018-11-21T13:22:54.480Z,101885.45
2018-11-21T13:25:25.516Z,101880.39
2018-11-21T13:27:50.690Z,101881.37
2018-11-21T13:30:12.746Z,101886.89
2018-11-21T13:32:33.922Z,101883.51
2018-11-21T13:35:11.324Z,101890.33
2018-11-21T13:37:32.104Z,101891.75
2018-11-21T13:40:03.346Z,101896.50
2018-11-21T13:42:19.068Z,101891.58
2018-11-21T13:44:29.783Z,101893.52
2018-11-21T13:46:50.605Z,101893.21
2018-11-21T13:49:06.716Z,101896.47
2018-11-21T13:51:27.752Z,101892.56
2018-11-21T13:53:42.549Z,101891.95
2018-11-21T13:55:45.058Z,101901.98
2018-11-21T13:57:47.493Z,101896.81
2018-11-21T13:59:49.914Z,101898.61
2018-11-21T14:01:52.726Z,101893.90
2018-11-21T14:03:55.150Z,101894.41
2018-11-21T14:05:57.553Z,101899.73
2018-11-21T14:07:59.994Z,101896.12
2018-11-21T14:10:03.337Z,101899.55
2018-11-21T14:12:05.849Z,101896.98
2018-11-21T14:14:09.196Z,101898.08
2018-11-21T14:16:11.624Z,101890.89
2018-11-21T14:18:14.062Z,101896.78
2018-11-21T14:20:16.518Z,101893.04
2018-11-21T14:22:18.934Z,101892.04
2018-11-21T14:24:21.359Z,101897.27
2018-11-21T14:26:24.188Z,101899.05
2018-11-21T14:28:26.599Z,101893.52
2018-11-21T14:30:28.994Z,101896.75
2018-11-21T14:32:31.441Z,101898.73
2018-11-21T14:34:33.976Z,101900.48
2018-11-21T14:36:36.395Z,101900.69
2018-11-21T14:38:39.302Z,101904.42
2018-11-21T14:40:41.731Z,101908.47
2018-11-21T14:42:44.132Z,101912.20
2018-11-21T14:44:46.581Z,101912.81
2018-11-21T14:46:51.150Z,101913.64
2018-11-21T14:48:53.587Z,101914.52
2018-11-21T14:50:56.297Z,101916.88
2018-11-21T14:52:58.733Z,101919.67
2018-11-21T14:55:01.145Z,101916.27
2018-11-21T14:57:03.694Z,101919.80
2018-11-21T14:59:06.122Z,101920.31
2018-11-21T15:01:08.548Z,101923.75
2018-11-21T15:03:10.980Z,101923.91
2018-11-21T15:05:13.882Z,101926.50
2018-11-21T15:07:16.281Z,101932.34
2018-11-21T15:09:19.000Z,101933.17
2018-11-21T15:11:21.447Z,101932.01
2018-11-21T15:13:23.856Z,101936.24
2018-11-21T15:15:26.294Z,101938.14
2018-11-21T15:17:28.754Z,101939.08
2018-11-21T15:19:31.153Z,101941.28
2018-11-21T15:21:33.906Z,101938.83
2018-11-21T15:23:36.415Z,101941.77
2018-11-21T15:25:38.843Z,101944.88
2018-11-21T15:27:41.558Z,101950.70
2018-11-21T15:29:43.958Z,101946.80
2018-11-21T15:31:46.380Z,101949.01
2018-11-21T15:33:48.825Z,101951.29
2018-11-21T15:35:51.241Z,101947.77
2018-11-21T15:37:53.656Z,101953.32
2018-11-21T15:39:56.126Z,101953.62
2018-11-21T15:41:58.537Z,101957.12
2018-11-21T15:44:00.949Z,101953.41
2018-11-21T15:46:03.488Z,101952.89
2018-11-21T15:48:05.912Z,101959.49
2018-11-21T15:50:13.763Z,101960.10
2018-11-21T15:52:16.224Z,101958.76
2018-11-21T15:54:18.658Z,101963.96
2018-11-21T15:56:22.020Z,101964.45
2018-11-21T15:58:23.934Z,101964.82
2018-11-21T16:00:27.942Z,101976.45
2018-11-21T16:02:30.549Z,101970.91
2018-11-21T16:04:32.977Z,101971.75
2018-11-21T16:06:35.419Z,101977.65
2018-11-21T16:08:37.838Z,101983.63
2018-11-21T16:10:41.879Z,101977.84
2018-11-21T16:12:44.467Z,101984.85
2018-11-21T16:14:46.900Z,101987.62
2018-11-21T16:16:49.296Z,101990.59
2018-11-21T16:18:51.756Z,101992.13
2018-11-21T16:20:54.213Z,101993.66
2018-11-21T16:22:56.640Z,101992.70
2018-11-21T16:24:59.075Z,101994.48
2018-11-21T16:27:01.536Z,101993.18
2018-11-21T16:29:04.362Z,101991.02
2018-11-21T16:31:06.835Z,101992.95
2018-11-21T16:33:09.274Z,101991.55
2018-11-21T16:35:12.127Z,101993.18
2018-11-21T16:37:14.554Z,101990.70
2018-11-21T16:39:16.976Z,101992.02
2018-11-21T16:41:19.444Z,101999.64
2018-11-21T16:43:21.865Z,102001.98
2018-11-21T16:45:26.190Z,102002.94
2018-11-21T16:47:28.624Z,102002.91
2018-11-21T16:49:31.055Z,102002.77
2018-11-21T16:51:33.519Z,102003.28
2018-11-21T16:53:35.994Z,102010.18
2018-11-21T16:55:38.432Z,102009.69
2018-11-21T16:57:41.367Z,102012.84
2018-11-21T16:59:43.823Z,102020.67
2018-11-21T17:01:46.254Z,102011.14
2018-11-21T17:03:49.034Z,102012.66
2018-11-21T17:05:51.441Z,102011.22
2018-11-21T17:07:53.863Z,102008.69
2018-11-21T17:09:56.603Z,102011.16
2018-11-21T17:11:59.018Z,102008.52
2018-11-21T17:14:01.422Z,102014.51
2018-11-21T17:16:04.674Z,102011.91
2018-11-21T17:18:07.077Z,102012.44
2018-11-21T17:20:13.412Z,102010.45
2018-11-21T17:22:16.167Z,102013.52
2018-11-21T17:24:18.591Z,102013.42
2018-11-21T17:26:21.000Z,102010.21
2018-11-21T17:28:23.726Z,102015.31
2018-11-21T17:30:26.164Z,102016.28
2018-11-21T17:32:28.586Z,102018.33
2018-11-21T17:34:31.264Z,102017.14
2018-11-21T17:36:33.731Z,102021.38
2018-11-21T17:38:36.187Z,102017.63
2018-11-21T17:40:40.672Z,102029.34
2018-11-21T17:42:43.179Z,102026.00
2018-11-21T17:44:45.822Z,102029.20
2018-11-21T17:46:48.529Z,102031.22
2018-11-21T17:48:51.010Z,102033.95
2018-11-21T17:50:53.430Z,102033.34
2018-11-21T17:52:57.287Z,102030.03
2018-11-21T17:54:59.712Z,102033.61
2018-11-21T17:57:02.502Z,102033.52
2018-11-21T17:59:05.030Z,102034.70
2018-11-21T18:01:07.431Z,102022.55
2018-11-21T18:03:10.238Z,102032.13
2018-11-21T18:05:14.190Z,102035.05
2018-11-21T18:07:16.622Z,102034.34
2018-11-21T18:09:19.021Z,102038.86
2018-11-21T18:11:21.487Z,102042.63
2018-11-21T18:13:23.945Z,102037.91
2018-11-21T18:15:26.366Z,102037.36
2018-11-21T18:17:28.799Z,102038.80
2018-11-21T18:19:31.269Z,102044.74
2018-11-21T18:21:33.697Z,102045.64
2018-11-21T18:23:36.155Z,102047.17
2018-11-21T18:25:40.879Z,102047.95
2018-11-21T18:27:43.677Z,102047.98
2018-11-21T18:29:46.140Z,102050.23
2018-11-21T18:31:48.592Z,102050.83
2018-11-21T18:33:51.486Z,102056.50
2018-11-21T18:35:53.924Z,102054.27
2018-11-21T18:37:56.350Z,102058.64
2018-11-21T18:39:58.830Z,102055.85
2018-11-21T18:42:01.235Z,102061.41
2018-11-21T18:44:03.784Z,102064.08
2018-11-21T18:46:06.300Z,102063.84
2018-11-21T18:48:09.209Z,102063.31
2018-11-21T18:50:13.113Z,102062.41
2018-11-21T18:52:15.573Z,102064.19
2018-11-21T18:54:18.017Z,102065.28
2018-11-21T18:56:37.424Z,102066.71
2018-11-21T18:59:14.166Z,102066.20
2018-11-21T19:01:16.617Z,102069.03
2018-11-21T19:03:19.126Z,102067.01
2018-11-21T19:05:21.614Z,102062.30
2018-11-21T19:07:24.054Z,102060.54
2018-11-21T19:09:26.502Z,102067.02
2018-11-21T19:11:29.027Z,102064.63
2018-11-21T19:13:31.629Z,102067.73
2018-11-21T19:15:34.188Z,102069.08
2018-11-21T19:17:36.696Z,102073.61
2018-11-21T19:19:39.120Z,102076.45
2018-11-21T19:21:41.756Z,102074.28
2018-11-21T19:23:45.247Z,102079.22
2018-11-21T19:25:47.699Z,102080.28
2018-11-21T19:27:50.196Z,102076.66
2018-11-21T19:29:52.646Z,102082.30
2018-11-21T19:31:55.118Z,102087.83
2018-11-21T19:33:57.630Z,102088.47
2018-11-21T19:36:00.126Z,102084.82
2018-11-21T19:38:02.751Z,102087.63
2018-11-21T19:40:08.787Z,102092.09
2018-11-21T19:42:11.296Z,102088.45
2018-11-21T19:44:13.741Z,102091.16
2018-11-21T19:46:16.195Z,102096.55
2018-11-21T19:48:18.734Z,102093.51
2018-11-21T19:50:21.258Z,102100.88
2018-11-21T19:52:23.699Z,102101.86
2018-11-21T19:54:26.200Z,102101.24
2018-11-21T19:56:29.532Z,102102.99
2018-11-21T19:58:31.975Z,102107.63
2018-11-21T20:00:35.577Z,102105.88
2018-11-21T20:02:38.045Z,102105.88
2018-11-21T20:04:40.486Z,102103.24
2018-11-21T20:06:51.924Z,102100.23
2018-11-21T20:08:55.464Z,102104.53
2018-11-21T20:10:58.289Z,102099.65
2018-11-21T20:13:00.793Z,102094.09
2018-11-21T20:15:03.497Z,102100.34
2018-11-21T20:17:06.020Z,102101.58
2018-11-21T20:19:08.492Z,102102.65
2018-11-21T20:21:10.918Z,102106.16
2018-11-21T20:23:13.383Z,102101.69
2018-11-21T20:25:17.061Z,102108.21
2018-11-21T20:27:19.554Z,102103.92
2018-11-21T20:29:22.054Z,102106.59
2018-11-21T20:31:24.556Z,102108.79
2018-11-21T20:33:28.069Z,102107.30
2018-11-21T20:35:30.758Z,102104.47
2018-11-21T20:37:33.206Z,102103.47
2018-11-21T20:39:35.738Z,102102.56
2018-11-21T20:41:38.317Z,102108.20
2018-11-21T20:43:59.939Z,102104.53
2018-11-21T20:46:02.407Z,102101.73
2018-11-21T20:48:05.084Z,102098.27
2018-11-21T20:50:07.613Z,102102.98
2018-11-21T20:52:10.123Z,102105.52
2018-11-21T20:54:12.644Z,102098.44
2018-11-21T20:56:15.125Z,102105.73
2018-11-21T20:58:17.603Z,102096.34
2018-11-21T21:00:21.500Z,102099.78
2018-11-21T21:02:23.955Z,102098.27
2018-11-21T21:04:26.392Z,102096.10
2018-11-21T21:06:28.872Z,102093.52
2018-11-21T21:08:31.380Z,102095.83
2018-11-21T21:10:34.152Z,102101.32
2018-11-21T21:12:36.649Z,102092.55
2018-11-21T21:14:39.125Z,102093.00
2018-11-21T21:16:41.553Z,102088.66
2018-11-21T21:18:44.002Z,102092.54
2018-11-21T21:20:46.497Z,102091.92
2018-11-21T21:22:50.384Z,102090.50
2018-11-21T21:24:52.878Z,102086.10
2018-11-21T21:26:55.399Z,102089.00
2018-11-21T21:28:57.811Z,102087.94
2018-11-21T21:31:00.246Z,102094.81
2018-11-21T21:33:02.720Z,102095.45
2018-11-21T21:35:24.732Z,102099.27
2018-11-21T21:37:46.125Z,102095.75
2018-11-21T21:39:48.833Z,102095.81
2018-11-21T21:41:51.796Z,102093.65
2018-11-21T21:43:54.235Z,102092.55
2018-11-21T21:45:56.717Z,102090.17
2018-11-21T21:48:05.415Z,102089.83
2018-11-21T21:50:09.680Z,102092.59
2018-11-21T21:52:12.107Z,102096.86
2018-11-21T21:54:14.544Z,102091.63
2018-11-21T21:56:17.008Z,102091.17
2018-11-21T21:58:19.443Z,102092.17
2018-11-21T22:00:23.217Z,102096.42
2018-11-21T22:02:25.972Z,102090.27
2018-11-21T22:04:28.390Z,102096.03
2018-11-21T22:06:30.829Z,102095.12
2018-11-21T22:08:33.273Z,102091.45
2018-11-21T22:10:35.900Z,102098.02
2018-11-21T22:12:38.417Z,102100.23
2018-11-21T22:14:40.831Z,102101.39
2018-11-21T22:16:43.277Z,102100.51
2018-11-21T22:18:45.699Z,102101.27
2018-11-21T22:20:48.430Z,102093.22
2018-11-21T22:22:51.290Z,102100.08
2018-11-21T22:24:53.964Z,102094.48
2018-11-21T22:26:56.660Z,102097.87
2018-11-21T22:28:59.099Z,102091.77
2018-11-21T22:31:01.521Z,102094.20
2018-11-21T22:33:04.373Z,102092.02
2018-11-21T22:35:07.730Z,102099.27
2018-11-21T22:37:10.140Z,102093.00
2018-11-21T22:39:13.123Z,102093.62
2018-11-21T22:41:15.724Z,102096.97
2018-11-21T22:43:18.140Z,102102.62
2018-11-21T22:45:21.335Z,102098.51
2018-11-21T22:47:23.796Z,102100.54
2018-11-21T22:49:26.248Z,102098.13
2018-11-21T22:51:28.764Z,102100.20
2018-11-21T22:53:31.185Z,102102.41
2018-11-21T22:55:33.589Z,102096.58
2018-11-21T22:57:36.002Z,102095.47
2018-11-21T22:59:38.471Z,102090.50
2018-11-21T23:01:40.893Z,102095.70
2018-11-21T23:03:43.321Z,102092.80
2018-11-21T23:05:45.759Z,102093.55
2018-11-21T23:07:48.169Z,102093.41
2018-11-21T23:09:50.586Z,102092.75
2018-11-21T23:11:53.021Z,102092.80
2018-11-21T23:13:55.418Z,102094.28
2018-11-21T23:15:57.860Z,102095.63
2018-11-21T23:18:00.670Z,102089.17
2018-11-21T23:20:04.589Z,102088.67
2018-11-21T23:22:07.005Z,102090.69
2018-11-21T23:24:09.466Z,102083.00
2018-11-21T23:26:11.904Z,102086.46
2018-11-21T23:28:14.337Z,102085.71
2018-11-21T23:30:17.781Z,102082.72
2018-11-21T23:32:20.248Z,102085.67
2018-11-21T23:34:22.695Z,102089.91
2018-11-21T23:36:25.144Z,102089.99
2018-11-21T23:38:27.943Z,102082.70
2018-11-21T23:40:30.385Z,102081.90
2018-11-21T23:42:32.799Z,102089.41
2018-11-21T23:44:35.256Z,102088.59
2018-11-21T23:46:37.688Z,102091.28
2018-11-21T23:48:40.107Z,102085.38
2018-11-21T23:50:42.573Z,102088.23
2018-11-21T23:52:44.981Z,102093.47
2018-11-21T23:54:47.401Z,102089.94
2018-11-21T23:57:15.536Z,102089.23